Time;durP1;ratioP1;P1;durP2;ratioP2;P2;SDS_P1;SDS_P2;PMS_P1;PMS_P2;Temp;Humidity;BMP_temperature;BMP_pressure;BME280_temperature;BME280_humidity;BME280_pressure;Samples;Min_cycle;Max_cycle;Signal;HPM_P1;HPM_P2
2021/07/12 00:00:27;;;;;;;2.63;1.60;;;;;;;15.53;86.94;96502.31;4989597;28;20077;-64
2021/07/12 00:02:53;;;;;;;2.22;1.30;;;;;;;15.43;87.22;96501.22;4992798;28;20046;-63
2021/07/12 00:05:20;;;;;;;3.00;1.45;;;;;;;15.43;87.33;96500.41;4993742;28;20033;-61
2021/07/12 00:07:46;;;;;;;2.25;1.60;;;;;;;15.38;87.35;96498.09;5000387;28;20081;-64
2021/07/12 00:10:14;;;;;;;6.28;1.50;;;;;;;15.41;87.06;96491.75;4997742;28;20041;-64
2021/07/12 00:12:41;;;;;;;2.35;1.85;;;;;;;15.35;87.49;96493.38;4986621;28;20038;-63
2021/07/12 00:15:09;;;;;;;3.05;1.77;;;;;;;15.32;87.52;96486.69;4982316;28;20045;-63
2021/07/12 00:17:35;;;;;;;2.08;1.50;;;;;;;15.33;87.49;96479.97;4983979;28;20046;-61
2021/07/12 00:20:00;;;;;;;2.30;1.42;;;;;;;15.28;87.45;96474.88;4984926;28;20042;-63
2021/07/12 00:22:26;;;;;;;3.40;1.80;;;;;;;15.19;88.26;96469.03;4964520;28;20048;-64
2021/07/12 00:24:51;;;;;;;2.38;1.58;;;;;;;15.15;88.62;96471.81;4984359;28;20042;-64
2021/07/12 00:27:17;;;;;;;4.13;1.70;;;;;;;15.13;88.79;96474.19;4980612;28;20046;-62
2021/07/12 00:29:42;;;;;;;2.58;1.60;;;;;;;15.14;88.68;96475.72;4983659;28;20042;-64
2021/07/12 00:32:08;;;;;;;4.45;1.80;;;;;;;15.10;88.81;96474.97;4979783;28;20073;-62
2021/07/12 00:34:33;;;;;;;3.13;1.90;;;;;;;15.06;88.87;96463.19;4983993;28;20089;-64
2021/07/12 00:36:59;;;;;;;2.55;1.70;;;;;;;15.01;89.13;96469.13;4983897;28;20047;-63
2021/07/12 00:39:24;;;;;;;3.17;1.67;;;;;;;15.02;89.34;96457.69;4958876;28;20158;-63
2021/07/12 00:41:50;;;;;;;2.55;1.70;;;;;;;14.99;89.24;96455.72;4981066;28;20392;-62
2021/07/12 00:44:15;;;;;;;3.03;1.77;;;;;;;15.04;88.76;96449.00;4979255;28;20073;-62
2021/07/12 00:46:41;;;;;;;7.68;1.83;;;;;;;15.01;88.85;96442.31;4984115;28;20034;-62
2021/07/12 00:49:06;;;;;;;5.35;1.90;;;;;;;15.04;88.64;96438.75;4978646;28;20480;-60
2021/07/12 00:51:34;;;;;;;2.63;1.95;;;;;;;15.00;88.86;96432.50;4983604;28;20129;-61
2021/07/12 00:54:00;;;;;;;3.55;2.20;;;;;;;14.95;89.19;96432.91;4983129;28;20101;-61
2021/07/12 00:56:25;;;;;;;4.07;2.10;;;;;;;14.95;89.53;96434.88;4976358;28;20050;-61
2021/07/12 00:58:51;;;;;;;3.50;2.30;;;;;;;14.93;89.39;96434.47;4966481;28;20126;-62
2021/07/12 01:01:16;;;;;;;2.85;1.75;;;;;;;14.96;88.92;96433.69;4979110;28;20042;-61
2021/07/12 01:03:42;;;;;;;2.63;1.70;;;;;;;14.95;89.34;96430.16;4982836;28;20046;-60
2021/07/12 01:06:08;;;;;;;2.58;1.70;;;;;;;15.01;89.08;96428.53;4977134;28;20049;-63
2021/07/12 01:08:34;;;;;;;11.73;2.75;;;;;;;14.97;88.80;96427.00;4970029;28;20399;-62
2021/07/12 01:11:14;;;;;;;4.70;2.15;;;;;;;15.00;88.88;96426.97;4965652;28;20457;-62
2021/07/12 01:13:50;;;;;;;3.30;1.80;;;;;;;14.90;89.08;96417.56;4981850;28;20137;-62
2021/07/12 01:16:18;;;;;;;4.90;2.10;;;;;;;14.89;89.19;96410.47;4960029;28;20061;-63
2021/07/12 01:19:15;;;;;;;2.30;1.80;;;;;;;14.84;90.18;96412.88;4991033;28;20137;-62
2021/07/12 01:22:16;;;;;;;3.40;2.15;;;;;;;14.77;90.33;96415.66;4981989;28;20042;-64
2021/07/12 01:25:00;;;;;;;5.43;1.98;;;;;;;14.74;90.38;96411.72;4983813;28;20053;-63
2021/07/12 01:28:14;;;;;;;4.97;2.13;;;;;;;14.67;90.91;96420.81;4979023;28;20212;-62
2021/07/12 01:30:58;;;;;;;4.47;1.95;;;;;;;14.66;90.83;96426.75;4965166;28;20446;-64
2021/07/12 01:33:41;;;;;;;5.32;1.88;;;;;;;14.62;90.95;96423.19;4978071;28;20781;-62
2021/07/12 01:36:20;;;;;;;2.78;1.73;;;;;;;14.68;90.96;96421.59;4970688;28;20065;-61
2021/07/12 01:39:06;;;;;;;3.38;1.70;;;;;;;14.78;91.46;96423.50;4975026;28;20066;-62
2021/07/12 01:41:41;;;;;;;5.50;2.25;;;;;;;14.73;91.04;96423.97;4982105;28;20050;-62
2021/07/12 01:44:48;;;;;;;4.13;1.52;;;;;;;14.77;91.09;96415.66;4976239;28;20065;-64
2021/07/12 01:47:32;;;;;;;3.63;1.75;;;;;;;14.80;91.05;96426.69;4955338;28;20054;-63
2021/07/12 01:50:13;;;;;;;3.90;1.40;;;;;;;14.63;91.16;96428.31;4978133;28;20042;-63
2021/07/12 01:52:44;;;;;;;3.22;1.77;;;;;;;14.55;91.55;96418.47;4982038;28;20216;-62
2021/07/12 01:55:21;;;;;;;3.15;1.63;;;;;;;14.49;91.98;96404.31;4975094;28;20039;-62
2021/07/12 01:58:07;;;;;;;3.25;1.88;;;;;;;14.45;91.51;96411.81;4981854;28;20050;-61
2021/07/12 02:00:34;;;;;;;4.75;1.70;;;;;;;14.30;92.31;96416.59;4977456;28;20499;-62
2021/07/12 02:03:01;;;;;;;4.85;1.58;;;;;;;14.28;92.70;96420.94;4975266;28;20055;-61
2021/07/12 02:05:30;;;;;;;5.75;1.85;;;;;;;14.26;92.59;96420.53;4972941;28;20714;-61
2021/07/12 02:07:58;;;;;;;2.47;1.60;;;;;;;14.21;92.91;96412.69;4988060;28;20046;-62
2021/07/12 02:10:27;;;;;;;3.55;1.60;;;;;;;14.22;93.06;96417.00;4983122;28;20053;-64
2021/07/12 02:12:54;;;;;;;5.30;2.03;;;;;;;14.14;91.89;96413.50;4984840;28;20838;-63
2021/07/12 02:15:19;;;;;;;6.53;1.80;;;;;;;14.05;93.07;96416.66;4957631;28;20043;-63
2021/07/12 02:17:50;;;;;;;4.38;1.80;;;;;;;14.11;93.09;96406.78;4982308;28;20117;-61
2021/07/12 02:20:16;;;;;;;2.75;1.63;;;;;;;13.86;93.98;96403.31;4977302;28;20496;-62
2021/07/12 02:22:43;;;;;;;4.63;1.95;;;;;;;13.43;96.28;96403.31;4981396;28;20088;-62
2021/07/12 02:25:12;;;;;;;5.32;1.70;;;;;;;13.30;97.58;96413.91;4966446;28;20047;-61
2021/07/12 02:27:38;;;;;;;5.45;1.80;;;;;;;13.45;98.45;96417.47;4969826;28;20046;-62
2021/07/12 02:30:06;;;;;;;7.53;2.00;;;;;;;13.50;97.46;96426.09;4968041;28;20046;-63
2021/07/12 02:32:34;;;;;;;6.65;1.88;;;;;;;13.45;97.86;96418.28;4972507;28;20057;-61
2021/07/12 02:35:00;;;;;;;3.45;1.90;;;;;;;13.44;97.80;96419.44;4981454;28;20049;-62
2021/07/12 02:37:27;;;;;;;6.05;1.80;;;;;;;13.37;97.93;96417.47;4975791;28;20050;-60
2021/07/12 02:39:54;;;;;;;4.13;2.00;;;;;;;13.51;97.48;96422.19;4973029;28;20042;-63
2021/07/12 02:42:20;;;;;;;6.82;4.20;;;;;;;13.66;96.93;96413.94;4974811;28;20085;-62
2021/07/12 02:44:51;;;;;;;3.15;2.40;;;;;;;13.45;96.88;96415.53;4979634;28;20443;-62
2021/07/12 02:47:17;;;;;;;8.20;2.13;;;;;;;13.42;98.11;96421.03;4972821;28;20042;-60
2021/07/12 02:49:43;;;;;;;3.53;2.05;;;;;;;13.58;97.56;96418.66;4974282;28;20081;-63
2021/07/12 02:52:20;;;;;;;6.15;2.45;;;;;;;13.59;96.98;96420.22;4979556;28;20038;-61
2021/07/12 02:54:47;;;;;;;3.60;1.98;;;;;;;13.47;97.17;96418.66;4969192;28;20049;-64
2021/07/12 02:57:13;;;;;;;4.07;2.30;;;;;;;13.47;97.22;96417.84;4972869;28;20077;-63
2021/07/12 02:59:39;;;;;;;3.90;2.55;;;;;;;13.48;97.38;96417.47;4956172;28;20504;-62
2021/07/12 03:02:05;;;;;;;3.55;2.47;;;;;;;13.31;97.05;96415.50;4974524;28;20046;-64
2021/07/12 03:04:30;;;;;;;3.40;2.10;;;;;;;13.29;97.51;96417.81;4972803;28;20205;-62
2021/07/12 03:06:58;;;;;;;7.60;2.47;;;;;;;13.28;97.72;96417.03;4972671;28;20133;-62
2021/07/12 03:09:32;;;;;;;7.13;2.20;;;;;;;13.30;97.85;96422.16;4966131;28;20153;-62
2021/07/12 03:12:06;;;;;;;5.97;2.10;;;;;;;13.24;97.70;96427.25;4979950;28;20049;-62
2021/07/12 03:14:45;;;;;;;6.93;2.25;;;;;;;13.28;97.99;96428.03;4978270;28;20050;-62
2021/07/12 03:17:13;;;;;;;6.13;2.78;;;;;;;13.18;97.48;96418.59;4976347;28;20069;-62
2021/07/12 03:19:41;;;;;;;6.05;2.50;;;;;;;13.17;98.22;96429.97;4975111;28;20035;-62
2021/07/12 03:22:10;;;;;;;4.85;2.30;;;;;;;12.98;98.56;96418.16;4980064;28;20049;-62
2021/07/12 03:24:38;;;;;;;6.25;2.67;;;;;;;13.02;98.38;96407.19;4981726;28;20513;-60
2021/07/12 03:27:08;;;;;;;3.70;2.40;;;;;;;12.80;99.47;96407.13;4971213;28;20411;-62
2021/07/12 03:29:36;;;;;;;4.15;2.67;;;;;;;12.62;100.00;96387.84;4988424;28;20494;-63
2021/07/12 03:32:03;;;;;;;2.72;1.88;;;;;;;12.59;100.00;96405.09;4981260;28;20050;-66
2021/07/12 03:34:30;;;;;;;4.05;2.15;;;;;;;12.59;100.00;96402.34;4961627;28;20034;-59
2021/07/12 03:36:57;;;;;;;4.57;1.98;;;;;;;12.61;100.00;96397.25;4981213;28;20038;-64
2021/07/12 03:39:23;;;;;;;6.10;2.88;;;;;;;12.71;100.00;96397.66;4976113;28;20769;-63
2021/07/12 03:41:50;;;;;;;8.95;2.58;;;;;;;12.75;100.00;96392.97;4963829;28;20069;-62
2021/07/12 03:44:16;;;;;;;3.42;2.20;;;;;;;12.71;99.65;96389.41;4974373;28;20046;-63
2021/07/12 03:46:44;;;;;;;6.00;2.45;;;;;;;12.80;100.00;96387.91;4984779;28;20546;-62
2021/07/12 03:49:17;;;;;;;7.03;3.00;;;;;;;12.65;98.78;96385.50;4979578;28;20047;-63
2021/07/12 03:51:48;;;;;;;7.25;2.80;;;;;;;12.59;99.21;96394.09;4985322;28;20096;-62
2021/07/12 03:54:14;;;;;;;3.97;2.10;;;;;;;12.69;99.89;96395.28;4970787;28;20058;-63
2021/07/12 03:56:40;;;;;;;4.95;2.20;;;;;;;12.66;99.71;96389.78;4984976;28;20042;-63
2021/07/12 03:59:05;;;;;;;4.68;2.03;;;;;;;12.69;100.00;96386.28;4983888;28;20077;-64
2021/07/12 04:01:31;;;;;;;3.88;2.13;;;;;;;12.69;100.00;96387.06;4997775;28;20042;-61
2021/07/12 04:03:57;;;;;;;3.42;2.10;;;;;;;12.83;100.00;96386.31;4984798;28;20372;-62
2021/07/12 04:06:22;;;;;;;4.28;2.60;;;;;;;12.93;99.85;96387.53;4978605;28;20612;-61
2021/07/12 04:08:48;;;;;;;6.30;2.60;;;;;;;13.07;99.46;96378.50;4984758;28;20058;-61
2021/07/12 04:11:15;;;;;;;5.70;2.47;;;;;;;13.10;98.50;96372.22;4978356;28;20057;-60
2021/07/12 04:13:42;;;;;;;6.85;2.45;;;;;;;12.86;98.73;96365.53;4983538;28;20379;-60
2021/07/12 04:16:07;;;;;;;3.88;2.10;;;;;;;12.91;100.00;96367.88;4977569;28;20042;-61
2021/07/12 04:18:34;;;;;;;4.15;2.28;;;;;;;13.14;99.27;96371.06;4984675;28;20050;-61
2021/07/12 04:21:00;;;;;;;4.00;1.95;;;;;;;13.18;98.75;96379.28;4987840;28;20177;-61
2021/07/12 04:23:26;;;;;;;4.07;2.03;;;;;;;13.17;98.09;96377.75;4977977;28;20050;-61
2021/07/12 04:25:51;;;;;;;6.10;3.05;;;;;;;13.34;98.15;96378.94;4975908;28;20046;-60
2021/07/12 04:28:17;;;;;;;4.10;2.42;;;;;;;13.58;98.68;96378.16;4976708;28;20194;-60
2021/07/12 04:30:42;;;;;;;3.55;2.38;;;;;;;13.81;96.71;96376.16;4983008;28;20042;-61
2021/07/12 04:33:08;;;;;;;5.15;2.33;;;;;;;14.18;94.68;96374.91;4986760;28;20104;-63
2021/07/12 04:35:33;;;;;;;3.10;1.88;;;;;;;14.57;92.28;96372.00;4976852;28;20049;-62
2021/07/12 04:37:59;;;;;;;3.60;2.20;;;;;;;14.69;89.83;96379.06;4983572;28;20487;-62
2021/07/12 04:40:24;;;;;;;7.32;2.17;;;;;;;14.67;88.23;96373.94;4966531;28;20057;-62
2021/07/12 04:42:50;;;;;;;5.60;1.77;;;;;;;14.83;87.71;96373.47;4971122;28;20045;-62
2021/07/12 04:45:16;;;;;;;3.20;1.88;;;;;;;15.09;87.28;96371.38;4971451;28;20046;-61
2021/07/12 04:47:41;;;;;;;4.47;2.00;;;;;;;15.29;86.57;96380.66;4984249;28;20045;-62
2021/07/12 04:50:08;;;;;;;3.88;2.20;;;;;;;15.51;85.54;96374.22;4970620;28;20050;-61
2021/07/12 04:52:34;;;;;;;10.57;2.35;;;;;;;15.74;84.47;96382.72;4983752;28;20046;-61
2021/07/12 04:55:00;;;;;;;4.47;2.00;;;;;;;16.00;83.31;96381.25;4983335;28;20054;-60
2021/07/12 04:57:26;;;;;;;3.60;2.05;;;;;;;16.35;82.10;96382.09;4966860;28;20583;-62
2021/07/12 04:59:52;;;;;;;3.30;1.70;;;;;;;17.28;79.25;96380.09;4982603;28;20065;-67
2021/07/12 05:02:18;;;;;;;4.15;1.85;;;;;;;18.78;71.25;96370.28;4968201;28;20046;-63
2021/07/12 05:04:43;;;;;;;4.05;1.65;;;;;;;20.42;64.86;96370.31;4984529;28;20053;-63
2021/07/12 05:07:13;;;;;;;3.25;1.73;;;;;;;22.01;58.15;96354.34;4969792;28;20089;-63
2021/07/12 05:09:39;;;;;;;8.00;2.03;;;;;;;23.11;54.31;96367.53;4965522;28;20115;-63
2021/07/12 05:12:09;;;;;;;5.35;1.73;;;;;;;24.20;51.04;96363.50;4976302;28;20053;-62
2021/07/12 05:14:38;;;;;;;4.28;1.20;;;;;;;25.49;46.77;96356.88;4978216;28;20082;-65
2021/07/12 05:17:04;;;;;;;3.85;1.20;;;;;;;26.11;45.23;96361.06;4976280;28;20042;-60
2021/07/12 05:19:30;;;;;;;4.47;1.50;;;;;;;26.45;43.56;96363.72;4984390;28;20384;-63
2021/07/12 05:21:56;;;;;;;3.40;1.13;;;;;;;27.23;41.42;96358.75;4976941;28;20042;-63
2021/07/12 05:24:21;;;;;;;2.10;1.20;;;;;;;27.93;40.93;96350.84;4958314;28;21587;-63
2021/07/12 05:26:47;;;;;;;1.90;0.93;;;;;;;28.33;39.41;96346.50;4984156;28;20038;-63
2021/07/12 05:29:12;;;;;;;1.67;1.08;;;;;;;28.77;38.67;96353.88;4974756;28;20042;-63
2021/07/12 05:31:37;;;;;;;4.05;1.20;;;;;;;28.81;38.18;96348.03;4983059;28;20446;-62
2021/07/12 05:34:03;;;;;;;6.00;1.38;;;;;;;29.33;37.97;96342.34;4981063;28;20069;-62
2021/07/12 05:36:29;;;;;;;2.15;1.17;;;;;;;29.78;36.44;96339.84;4973050;28;20109;-63
2021/07/12 05:38:54;;;;;;;4.63;1.27;;;;;;;30.00;36.20;96339.19;4981927;28;20046;-63
2021/07/12 05:41:19;;;;;;;1.60;1.05;;;;;;;30.12;35.49;96340.00;4975526;28;20451;-64
2021/07/12 05:43:45;;;;;;;2.50;1.02;;;;;;;29.92;35.85;96338.13;4981311;28;20065;-63
2021/07/12 05:46:10;;;;;;;3.50;1.10;;;;;;;29.77;36.59;96343.97;4976024;28;20047;-63
2021/07/12 05:48:36;;;;;;;2.75;1.20;;;;;;;30.53;35.45;96334.00;4978198;28;20043;-63
2021/07/12 05:51:01;;;;;;;4.47;1.17;;;;;;;30.96;34.55;96335.91;4977447;28;20450;-63
2021/07/12 05:53:27;;;;;;;5.22;1.75;;;;;;;30.79;35.19;96328.16;4974497;28;20599;-64
2021/07/12 05:55:52;;;;;;;1.55;1.10;;;;;;;30.72;35.04;96330.69;4976712;28;20043;-63
2021/07/12 05:58:17;;;;;;;1.77;0.95;;;;;;;31.32;34.38;96317.13;4977484;28;20069;-64
2021/07/12 06:00:43;;;;;;;2.25;1.20;;;;;;;31.25;33.68;96323.31;4972596;28;20141;-63
2021/07/12 06:03:08;;;;;;;5.32;1.23;;;;;;;30.21;36.17;96327.72;4975898;28;20518;-63
2021/07/12 06:05:34;;;;;;;3.03;1.30;;;;;;;31.02;34.37;96340.28;4973836;28;20047;-63
2021/07/12 06:08:00;;;;;;;3.47;1.20;;;;;;;24.66;45.47;96337.50;4976290;28;20058;-64
2021/07/12 06:10:26;;;;;;;3.00;1.20;;;;;;;24.13;49.29;96332.22;4967539;28;20061;-66
2021/07/12 06:12:51;;;;;;;2.05;1.20;;;;;;;23.91;49.74;96326.78;4981964;28;20047;-65
2021/07/12 06:15:17;;;;;;;3.30;1.50;;;;;;;20.61;58.42;96331.66;4966432;28;20047;-64
2021/07/12 06:17:44;;;;;;;4.47;1.65;;;;;;;19.41;64.93;96327.66;4983854;28;20384;-64
2021/07/12 06:20:10;;;;;;;4.32;2.05;;;;;;;19.47;65.39;96322.34;4977539;28;20115;-64
2021/07/12 06:22:36;;;;;;;5.43;1.75;;;;;;;20.36;62.04;96324.00;4974536;28;20070;-65
2021/07/12 06:25:02;;;;;;;2.97;1.65;;;;;;;20.74;60.27;96323.31;4973838;28;20141;-63
2021/07/12 06:27:28;;;;;;;5.50;1.70;;;;;;;20.33;62.08;96308.97;4974821;28;20049;-64
2021/07/12 06:29:53;;;;;;;4.82;1.95;;;;;;;20.03;65.18;96296.31;4980550;28;20042;-64
2021/07/12 06:32:19;;;;;;;2.20;1.55;;;;;;;19.83;64.88;96283.34;4972646;28;20074;-62
2021/07/12 06:34:44;;;;;;;2.55;1.58;;;;;;;20.60;62.66;96300.25;4966784;28;20509;-63
2021/07/12 06:37:10;;;;;;;4.28;1.67;;;;;;;20.62;61.08;96297.06;4967774;28;20046;-63
2021/07/12 06:39:35;;;;;;;6.72;1.77;;;;;;;21.03;59.08;96286.25;4969780;28;20043;-64
2021/07/12 06:42:01;;;;;;;3.00;1.50;;;;;;;20.70;62.50;96272.56;4970804;28;20504;-64
2021/07/12 06:44:26;;;;;;;5.53;1.35;;;;;;;21.08;61.79;96269.00;4968883;28;20061;-67
2021/07/12 06:46:52;;;;;;;3.30;1.98;;;;;;;21.02;61.03;96260.44;4974095;28;20209;-64
2021/07/12 06:49:17;;;;;;;3.13;1.70;;;;;;;20.35;62.83;96259.25;4975679;28;20159;-65
2021/07/12 06:51:43;;;;;;;3.13;1.48;;;;;;;19.85;63.98;96253.09;4968947;28;20049;-64
2021/07/12 06:54:08;;;;;;;5.07;1.70;;;;;;;19.76;65.45;96260.53;4973533;28;20184;-65
2021/07/12 06:56:34;;;;;;;3.47;1.65;;;;;;;20.03;65.04;96260.19;4978727;28;20491;-65
2021/07/12 06:58:59;;;;;;;4.85;1.80;;;;;;;20.40;62.35;96263.47;4946628;28;20046;-64
2021/07/12 07:01:25;;;;;;;5.20;1.80;;;;;;;21.13;60.47;96271.22;4974313;28;20499;-64
2021/07/12 07:03:50;;;;;;;4.28;1.73;;;;;;;21.72;59.60;96271.69;4978028;28;20128;-63
2021/07/12 07:06:16;;;;;;;2.85;1.70;;;;;;;23.94;50.88;96262.31;4971057;28;20046;-64
2021/07/12 07:08:42;;;;;;;6.75;1.55;;;;;;;20.89;59.59;96271.56;4964405;28;20042;-64
2021/07/12 07:11:07;;;;;;;2.55;1.63;;;;;;;22.60;56.82;96256.94;4977021;28;20124;-65
2021/07/12 07:13:33;;;;;;;3.15;1.77;;;;;;;22.17;57.59;96253.75;4980000;28;20038;-64
2021/07/12 07:15:58;;;;;;;3.30;1.67;;;;;;;21.17;60.20;96238.47;4975333;28;20391;-64
2021/07/12 07:18:24;;;;;;;2.55;1.65;;;;;;;20.72;61.16;96242.28;4975278;28;20693;-63
2021/07/12 07:20:49;;;;;;;4.50;1.63;;;;;;;21.12;60.63;96239.03;4982073;28;20049;-64
2021/07/12 07:23:15;;;;;;;6.45;2.58;;;;;;;20.19;64.02;96223.97;4957075;28;20136;-63
2021/07/12 07:25:41;;;;;;;5.03;2.65;;;;;;;20.81;62.26;96217.34;4973074;28;20423;-63
2021/07/12 07:28:06;;;;;;;4.43;1.60;;;;;;;20.67;61.85;96201.91;4989518;28;20040;-63
2021/07/12 07:30:35;;;;;;;4.53;1.80;;;;;;;21.87;59.39;96196.69;4972961;28;20650;-63
2021/07/12 07:33:01;;;;;;;6.85;2.10;;;;;;;20.58;62.82;96199.75;4974681;28;20038;-63
2021/07/12 07:35:26;;;;;;;3.72;1.70;;;;;;;21.61;60.61;96199.59;4962588;28;20077;-64
2021/07/12 07:37:51;;;;;;;4.30;1.77;;;;;;;21.30;61.84;96203.03;4980540;28;20042;-64
2021/07/12 07:40:19;;;;;;;4.45;1.52;;;;;;;22.31;59.67;96188.31;4958816;28;20043;-63
2021/07/12 07:42:45;;;;;;;2.28;1.60;;;;;;;22.05;58.76;96184.88;4980029;28;20052;-64
2021/07/12 07:45:12;;;;;;;4.78;1.60;;;;;;;20.72;62.93;96186.63;4966834;28;20483;-63
2021/07/12 07:47:38;;;;;;;3.83;1.70;;;;;;;21.02;62.77;96174.13;4978122;28;20137;-63
2021/07/12 07:50:05;;;;;;;2.92;1.50;;;;;;;22.32;60.67;96159.16;4977056;28;20113;-62
2021/07/12 07:52:30;;;;;;;2.35;1.50;;;;;;;24.41;53.78;96162.28;4980658;28;20050;-63
2021/07/12 07:54:56;;;;;;;3.53;1.60;;;;;;;26.64;47.99;96165.75;4962655;28;20057;-64
2021/07/12 07:57:21;;;;;;;3.83;1.42;;;;;;;23.71;54.02;96177.00;4975944;28;20050;-64
2021/07/12 07:59:47;;;;;;;2.65;1.60;;;;;;;22.32;58.09;96181.50;4979439;28;20050;-65
2021/07/12 08:02:12;;;;;;;3.00;1.60;;;;;;;22.35;59.45;96188.97;4975626;28;20046;-63
2021/07/12 08:04:37;;;;;;;4.22;1.50;;;;;;;23.03;56.84;96171.50;4980210;28;20444;-64
2021/07/12 08:07:03;;;;;;;2.90;1.35;;;;;;;24.10;53.55;96176.53;4970668;28;20145;-61
2021/07/12 08:09:28;;;;;;;4.05;1.70;;;;;;;23.99;54.35;96183.38;4975518;28;20100;-63
2021/07/12 08:11:54;;;;;;;5.75;2.08;;;;;;;23.31;55.47;96177.94;4979935;28;20047;-63
2021/07/12 08:14:20;;;;;;;1.92;1.35;;;;;;;24.65;52.00;96184.78;4967141;28;20047;-65
2021/07/12 08:16:49;;;;;;;2.60;1.40;;;;;;;26.08;48.09;96181.63;4982670;28;20145;-65
2021/07/12 08:19:14;;;;;;;2.90;1.60;;;;;;;26.47;47.01;96179.50;4974766;28;20125;-63
2021/07/12 08:21:40;;;;;;;3.30;1.20;;;;;;;24.61;53.16;96178.56;4972650;28;20121;-64
2021/07/12 08:24:06;;;;;;;2.33;1.63;;;;;;;23.27;56.67;96175.28;4975304;28;20195;-62
2021/07/12 08:26:31;;;;;;;2.60;1.58;;;;;;;23.67;55.84;96170.81;4980064;28;20049;-64
2021/07/12 08:28:58;;;;;;;3.85;1.85;;;;;;;23.17;55.17;96168.13;4990461;28;20073;-64
2021/07/12 08:31:24;;;;;;;2.75;1.88;;;;;;;23.93;53.62;96164.88;4964528;28;20042;-64
2021/07/12 08:33:49;;;;;;;3.97;1.83;;;;;;;25.57;49.36;96155.44;4983405;28;20049;-64
2021/07/12 08:36:16;;;;;;;5.75;1.73;;;;;;;26.05;47.42;96162.94;4969346;28;20372;-64
2021/07/12 08:38:42;;;;;;;3.42;1.52;;;;;;;25.15;49.88;96150.72;4983948;28;20057;-64
2021/07/12 08:41:08;;;;;;;2.67;1.70;;;;;;;22.97;54.86;96146.19;4979132;28;20038;-63
2021/07/12 08:43:34;;;;;;;3.55;1.90;;;;;;;22.26;57.40;96147.03;4983692;28;20057;-65
2021/07/12 08:45:59;;;;;;;3.15;1.75;;;;;;;23.02;55.55;96153.19;4983587;28;20063;-64
2021/07/12 08:48:25;;;;;;;3.00;1.73;;;;;;;23.18;55.33;96141.75;4970035;28;20058;-63
2021/07/12 08:50:50;;;;;;;4.07;1.38;;;;;;;22.95;54.77;96136.75;4986312;28;20141;-64
2021/07/12 08:53:16;;;;;;;4.65;2.75;;;;;;;23.92;52.34;96147.34;4978723;28;20125;-65
2021/07/12 08:55:45;;;;;;;3.63;1.90;;;;;;;23.82;52.14;96149.38;4983453;28;20042;-65
2021/07/12 08:58:19;;;;;;;2.70;1.70;;;;;;;23.86;53.37;96135.25;4976089;28;20049;-64
2021/07/12 09:00:50;;;;;;;4.30;1.50;;;;;;;23.65;53.05;96132.13;4982160;28;20138;-64
2021/07/12 09:03:18;;;;;;;5.22;1.55;;;;;;;23.05;54.69;96124.38;4970114;28;20130;-63
2021/07/12 09:05:55;;;;;;;2.60;1.55;;;;;;;23.87;52.50;96125.59;4983356;28;20038;-63
2021/07/12 09:08:47;;;;;;;3.33;1.60;;;;;;;23.94;52.98;96121.72;4966749;28;20420;-64
2021/07/12 09:11:36;;;;;;;3.83;1.80;;;;;;;23.97;50.57;96123.56;4985832;28;20039;-64
2021/07/12 09:14:10;;;;;;;2.45;1.45;;;;;;;23.88;49.86;96117.97;4993270;28;20042;-65
2021/07/12 09:16:54;;;;;;;4.05;1.40;;;;;;;25.50;47.33;96108.16;4982328;28;20725;-64
2021/07/12 09:19:29;;;;;;;5.20;1.60;;;;;;;24.90;47.62;96107.16;4977377;28;20050;-64
2021/07/12 09:22:16;;;;;;;2.53;1.33;;;;;;;25.03;49.06;96095.69;4976827;28;21382;-64
2021/07/12 09:24:53;;;;;;;3.33;1.45;;;;;;;24.14;51.15;96098.81;4983102;28;20046;-65
2021/07/12 09:27:23;;;;;;;2.33;1.38;;;;;;;24.59;48.12;96086.63;4976995;28;20038;-64
2021/07/12 09:30:00;;;;;;;4.53;1.45;;;;;;;24.78;49.66;96064.91;4981736;28;20038;-65
2021/07/12 09:32:28;;;;;;;3.00;1.58;;;;;;;24.69;50.25;96055.81;4977468;28;20070;-64
2021/07/12 09:35:01;;;;;;;2.42;1.60;;;;;;;24.46;52.23;96060.13;4982557;28;20057;-65
2021/07/12 09:37:28;;;;;;;5.35;1.85;;;;;;;24.89;49.70;96055.97;4978923;28;20136;-64
2021/07/12 09:39:55;;;;;;;4.18;1.50;;;;;;;24.50;51.76;96074.69;4982633;28;20043;-64
2021/07/12 09:42:24;;;;;;;4.65;1.48;;;;;;;24.97;50.24;96085.19;4976676;28;20046;-63
2021/07/12 09:44:56;;;;;;;4.13;1.75;;;;;;;25.08;48.46;96073.41;4973643;28;20518;-65
2021/07/12 09:47:24;;;;;;;2.45;1.33;;;;;;;25.08;48.47;96072.63;4977947;28;20509;-64
2021/07/12 09:49:52;;;;;;;3.17;1.33;;;;;;;24.51;50.07;96071.44;4965257;28;20133;-65
2021/07/12 09:52:20;;;;;;;1.85;1.30;;;;;;;24.98;51.43;96072.72;4974464;28;20038;-65
2021/07/12 09:54:47;;;;;;;3.25;1.48;;;;;;;24.75;51.55;96073.50;4981467;28;20129;-64
2021/07/12 09:57:20;;;;;;;17.02;11.32;;;;;;;24.95;51.60;96076.47;4976412;28;20215;-63
2021/07/12 10:00:02;;;;;;;3.30;1.45;;;;;;;24.45;52.97;96083.75;4980564;28;20046;-64
2021/07/12 10:02:30;;;;;;;3.17;1.63;;;;;;;24.90;50.89;96079.94;4945220;28;20069;-64
2021/07/12 10:04:57;;;;;;;3.05;1.48;;;;;;;24.41;52.29;96078.31;4975384;28;20070;-66
2021/07/12 10:07:23;;;;;;;5.35;1.50;;;;;;;24.65;54.04;96081.19;4977669;28;20046;-66
2021/07/12 10:09:49;;;;;;;2.42;1.60;;;;;;;24.50;52.06;96078.25;4985603;28;20104;-63
2021/07/12 10:12:16;;;;;;;2.20;1.50;;;;;;;24.78;52.59;96078.16;4978506;28;20042;-63
2021/07/12 10:14:41;;;;;;;3.85;1.98;;;;;;;25.22;51.38;96069.09;4981989;28;20046;-64
2021/07/12 10:17:09;;;;;;;3.05;1.30;;;;;;;25.22;51.36;96079.53;4976846;28;20510;-65
2021/07/12 10:19:36;;;;;;;2.83;1.50;;;;;;;25.41;50.90;96080.16;4978318;28;20133;-65
2021/07/12 10:22:02;;;;;;;4.72;1.50;;;;;;;26.37;48.54;96070.59;4960148;28;20066;-64
2021/07/12 10:24:35;;;;;;;3.80;1.67;;;;;;;25.93;51.39;96072.22;4976827;28;20042;-65
2021/07/12 10:27:02;;;;;;;4.60;1.50;;;;;;;25.70;53.84;96068.22;4981134;28;20081;-67
2021/07/12 10:29:36;;;;;;;3.50;1.67;;;;;;;27.26;50.66;96061.81;4969584;28;20050;-65
2021/07/12 10:32:08;;;;;;;3.55;1.65;;;;;;;27.36;49.15;96062.47;4980328;28;20048;-63
2021/07/12 10:34:41;;;;;;;2.33;1.58;;;;;;;27.85;48.06;96061.41;4981808;28;20040;-64
2021/07/12 10:37:40;;;;;;;10.18;2.28;;;;;;;27.97;47.61;96058.75;4975996;28;20057;-64
2021/07/12 10:40:18;;;;;;;3.67;1.65;;;;;;;28.00;48.84;96054.91;4973191;28;20395;-64
2021/07/12 10:42:43;;;;;;;4.07;1.80;;;;;;;28.46;46.97;96056.03;4972455;28;20387;-64
2021/07/12 10:45:09;;;;;;;7.70;1.80;;;;;;;28.36;46.22;96053.41;4974779;28;20045;-64
2021/07/12 10:47:44;;;;;;;5.07;1.85;;;;;;;28.42;46.17;96053.44;4980135;28;20050;-64
2021/07/12 10:50:34;;;;;;;6.07;1.88;;;;;;;28.64;46.35;96052.06;4976316;28;20080;-64
2021/07/12 10:53:02;;;;;;;3.47;1.92;;;;;;;27.82;48.08;96054.00;4981187;28;20042;-65
2021/07/12 10:55:34;;;;;;;4.25;1.20;;;;;;;28.07;40.90;96054.47;4973239;28;20050;-64
2021/07/12 10:58:17;;;;;;;3.17;1.85;;;;;;;27.78;42.68;96049.84;4978264;28;20309;-63
2021/07/12 11:00:43;;;;;;;2.10;1.35;;;;;;;27.95;42.51;96050.03;4960500;28;20133;-64
2021/07/12 11:03:34;;;;;;;3.78;1.50;;;;;;;27.30;50.09;96047.56;4957274;28;20138;-64
2021/07/12 11:06:00;;;;;;;2.13;1.48;;;;;;;27.58;51.62;96059.13;4976634;28;20791;-63
2021/07/12 11:08:45;;;;;;;3.53;1.98;;;;;;;27.52;51.24;96058.31;4964829;28;20050;-63
2021/07/12 11:11:32;;;;;;;2.60;1.60;;;;;;;27.48;52.46;96046.47;4972902;28;20042;-64
2021/07/12 11:14:06;;;;;;;2.70;2.00;;;;;;;27.60;52.55;96040.50;4971718;28;20065;-64
2021/07/12 11:16:45;;;;;;;2.80;1.80;;;;;;;28.14;50.68;96036.34;4978417;28;20046;-64
2021/07/12 11:19:33;;;;;;;3.53;1.98;;;;;;;27.61;51.12;96032.81;4977026;28;20057;-63
2021/07/12 11:22:13;;;;;;;3.70;2.13;;;;;;;27.55;52.25;96029.16;4970619;28;20048;-64
2021/07/12 11:25:03;;;;;;;4.57;1.90;;;;;;;27.72;51.24;96032.91;4961211;28;20655;-64
2021/07/12 11:27:36;;;;;;;3.63;1.90;;;;;;;27.71;50.80;96030.59;4934281;28;20768;-64
2021/07/12 11:30:24;;;;;;;2.85;1.88;;;;;;;27.49;51.44;96026.31;4968468;28;20503;-62
2021/07/12 11:32:49;;;;;;;5.20;2.00;;;;;;;27.71;51.29;96039.81;4961249;28;20484;-64
2021/07/12 11:35:15;;;;;;;3.33;1.90;;;;;;;27.99;51.53;96048.53;4963053;28;20058;-64
2021/07/12 11:37:41;;;;;;;2.90;1.90;;;;;;;28.02;50.49;96041.13;4975295;28;20042;-64
2021/07/12 11:40:08;;;;;;;5.28;1.50;;;;;;;28.20;50.09;96046.38;4976884;28;20050;-62
2021/07/12 11:42:43;;;;;;;7.90;2.00;;;;;;;28.36;48.58;96039.34;4976023;28;20038;-65